sensor_id;sensor_type;location;lat;lon;timestamp;temperature;humidity
43520;DHT22;46848;51.980;5.918;2024-03-02T00:02:14;9.90;72.00
43520;DHT22;46848;51.980;5.918;2024-03-02T00:04:40;9.90;72.00
43520;DHT22;46848;51.980;5.918;2024-03-02T00:07:06;9.90;72.00
43520;DHT22;46848;51.980;5.918;2024-03-02T00:09:32;9.90;71.90
43520;DHT22;46848;51.980;5.918;2024-03-02T00:11:59;9.90;72.00
43520;DHT22;46848;51.980;5.918;2024-03-02T00:14:25;9.90;71.90
43520;DHT22;46848;51.980;5.918;2024-03-02T00:16:51;9.90;72.10
43520;DHT22;46848;51.980;5.918;2024-03-02T00:19:18;9.90;71.90
43520;DHT22;46848;51.980;5.918;2024-03-02T00:21:44;9.90;72.00
43520;DHT22;46848;51.980;5.918;2024-03-02T00:24:21;9.90;72.00
43520;DHT22;46848;51.980;5.918;2024-03-02T00:26:49;9.90;72.20
43520;DHT22;46848;51.980;5.918;2024-03-02T00:29:17;9.90;72.30
43520;DHT22;46848;51.980;5.918;2024-03-02T00:31:45;9.90;72.30
43520;DHT22;46848;51.980;5.918;2024-03-02T00:34:13;9.90;72.40
43520;DHT22;46848;51.980;5.918;2024-03-02T00:36:41;9.90;72.30
43520;DHT22;46848;51.980;5.918;2024-03-02T00:39:07;9.90;72.40
43520;DHT22;46848;51.980;5.918;2024-03-02T00:41:33;9.90;72.20
43520;DHT22;46848;51.980;5.918;2024-03-02T00:46:42;9.90;72.60
43520;DHT22;46848;51.980;5.918;2024-03-02T00:49:22;9.90;72.70
43520;DHT22;46848;51.980;5.918;2024-03-02T00:51:49;9.80;72.50
43520;DHT22;46848;51.980;5.918;2024-03-02T00:54:16;9.80;72.50
43520;DHT22;46848;51.980;5.918;2024-03-02T00:56:44;9.80;72.70
43520;DHT22;46848;51.980;5.918;2024-03-02T00:59:10;9.90;72.60
43520;DHT22;46848;51.980;5.918;2024-03-02T01:01:36;9.90;72.40
43520;DHT22;46848;51.980;5.918;2024-03-02T01:04:02;9.90;72.60
43520;DHT22;46848;51.980;5.918;2024-03-02T01:06:28;10.00;72.80
43520;DHT22;46848;51.980;5.918;2024-03-02T01:08:54;9.90;72.90
43520;DHT22;46848;51.980;5.918;2024-03-02T01:11:20;9.90;73.10
43520;DHT22;46848;51.980;5.918;2024-03-02T01:13:48;9.90;73.40
43520;DHT22;46848;51.980;5.918;2024-03-02T01:16:14;9.90;73.40
43520;DHT22;46848;51.980;5.918;2024-03-02T01:18:41;9.90;73.30
43520;DHT22;46848;51.980;5.918;2024-03-02T01:21:07;10.00;73.30
43520;DHT22;46848;51.980;5.918;2024-03-02T01:23:33;10.00;73.30
43520;DHT22;46848;51.980;5.918;2024-03-02T01:25:58;10.10;73.10
43520;DHT22;46848;51.980;5.918;2024-03-02T01:28:24;10.10;72.90
43520;DHT22;46848;51.980;5.918;2024-03-02T01:30:49;10.20;72.80
43520;DHT22;46848;51.980;5.918;2024-03-02T01:33:16;10.20;72.90
43520;DHT22;46848;51.980;5.918;2024-03-02T01:35:42;10.20;72.90
43520;DHT22;46848;51.980;5.918;2024-03-02T01:38:08;10.20;73.10
43520;DHT22;46848;51.980;5.918;2024-03-02T01:40:37;10.20;73.20
43520;DHT22;46848;51.980;5.918;2024-03-02T01:43:04;10.30;73.70
43520;DHT22;46848;51.980;5.918;2024-03-02T01:45:30;10.30;73.00
43520;DHT22;46848;51.980;5.918;2024-03-02T01:47:56;10.30;73.10
43520;DHT22;46848;51.980;5.918;2024-03-02T01:50:26;10.40;73.20
43520;DHT22;46848;51.980;5.918;2024-03-02T01:52:52;10.30;74.20
43520;DHT22;46848;51.980;5.918;2024-03-02T01:55:18;10.20;74.50
43520;DHT22;46848;51.980;5.918;2024-03-02T01:57:44;10.20;74.60
43520;DHT22;46848;51.980;5.918;2024-03-02T02:00:10;10.30;74.70
43520;DHT22;46848;51.980;5.918;2024-03-02T02:02:36;10.20;75.00
43520;DHT22;46848;51.980;5.918;2024-03-02T02:05:03;10.20;75.50
43520;DHT22;46848;51.980;5.918;2024-03-02T02:07:29;10.30;75.00
43520;DHT22;46848;51.980;5.918;2024-03-02T02:09:55;10.20;75.30
43520;DHT22;46848;51.980;5.918;2024-03-02T02:12:20;10.10;75.60
43520;DHT22;46848;51.980;5.918;2024-03-02T02:14:49;10.10;75.80
43520;DHT22;46848;51.980;5.918;2024-03-02T02:17:18;10.00;76.30
43520;DHT22;46848;51.980;5.918;2024-03-02T02:19:44;10.00;76.20
43520;DHT22;46848;51.980;5.918;2024-03-02T02:22:12;10.10;75.90
43520;DHT22;46848;51.980;5.918;2024-03-02T02:24:41;10.10;75.90
43520;DHT22;46848;51.980;5.918;2024-03-02T02:27:08;10.20;75.80
43520;DHT22;46848;51.980;5.918;2024-03-02T02:29:34;10.30;75.60
43520;DHT22;46848;51.980;5.918;2024-03-02T02:31:59;10.30;75.50
43520;DHT22;46848;51.980;5.918;2024-03-02T02:34:25;10.30;75.50
43520;DHT22;46848;51.980;5.918;2024-03-02T02:36:50;10.30;75.60
43520;DHT22;46848;51.980;5.918;2024-03-02T02:39:18;10.30;75.60
43520;DHT22;46848;51.980;5.918;2024-03-02T02:41:45;10.20;75.50
43520;DHT22;46848;51.980;5.918;2024-03-02T02:44:10;10.20;75.60
43520;DHT22;46848;51.980;5.918;2024-03-02T02:46:40;10.20;75.60
43520;DHT22;46848;51.980;5.918;2024-03-02T02:49:06;10.20;75.60
43520;DHT22;46848;51.980;5.918;2024-03-02T02:51:32;10.20;75.40
43520;DHT22;46848;51.980;5.918;2024-03-02T02:53:57;10.20;75.20
43520;DHT22;46848;51.980;5.918;2024-03-02T02:56:23;10.20;75.00
43520;DHT22;46848;51.980;5.918;2024-03-02T02:58:49;10.20;74.90
43520;DHT22;46848;51.980;5.918;2024-03-02T03:01:17;10.20;75.20
43520;DHT22;46848;51.980;5.918;2024-03-02T03:03:46;10.20;75.10
43520;DHT22;46848;51.980;5.918;2024-03-02T03:06:12;10.20;75.30
43520;DHT22;46848;51.980;5.918;2024-03-02T03:08:37;10.10;75.40
43520;DHT22;46848;51.980;5.918;2024-03-02T03:11:04;10.20;75.40
43520;DHT22;46848;51.980;5.918;2024-03-02T03:13:30;10.20;75.50
43520;DHT22;46848;51.980;5.918;2024-03-02T03:15:56;10.10;75.50
43520;DHT22;46848;51.980;5.918;2024-03-02T03:18:22;10.20;75.60
43520;DHT22;46848;51.980;5.918;2024-03-02T03:20:47;10.10;75.50
43520;DHT22;46848;51.980;5.918;2024-03-02T03:23:13;10.20;75.60
43520;DHT22;46848;51.980;5.918;2024-03-02T03:25:41;10.10;75.60
43520;DHT22;46848;51.980;5.918;2024-03-02T03:28:07;10.10;75.70
43520;DHT22;46848;51.980;5.918;2024-03-02T03:30:38;10.10;75.70
43520;DHT22;46848;51.980;5.918;2024-03-02T03:33:04;10.10;75.70
43520;DHT22;46848;51.980;5.918;2024-03-02T03:35:33;10.10;75.60
43520;DHT22;46848;51.980;5.918;2024-03-02T03:37:58;10.20;75.70
43520;DHT22;46848;51.980;5.918;2024-03-02T03:40:24;10.10;75.70
43520;DHT22;46848;51.980;5.918;2024-03-02T03:42:50;10.10;75.80
43520;DHT22;46848;51.980;5.918;2024-03-02T03:45:16;10.00;76.10
43520;DHT22;46848;51.980;5.918;2024-03-02T03:47:41;10.00;76.10
43520;DHT22;46848;51.980;5.918;2024-03-02T03:50:07;10.00;76.10
43520;DHT22;46848;51.980;5.918;2024-03-02T03:52:33;10.00;76.00
43520;DHT22;46848;51.980;5.918;2024-03-02T03:54:59;10.10;76.20
43520;DHT22;46848;51.980;5.918;2024-03-02T03:57:26;10.00;76.20
43520;DHT22;46848;51.980;5.918;2024-03-02T03:59:52;10.00;76.30
43520;DHT22;46848;51.980;5.918;2024-03-02T04:02:17;10.00;76.50
43520;DHT22;46848;51.980;5.918;2024-03-02T04:04:43;9.90;77.10
43520;DHT22;46848;51.980;5.918;2024-03-02T04:07:09;9.90;77.40
43520;DHT22;46848;51.980;5.918;2024-03-02T04:09:34;9.80;77.30
43520;DHT22;46848;51.980;5.918;2024-03-02T04:12:00;9.80;77.40
43520;DHT22;46848;51.980;5.918;2024-03-02T04:14:25;9.80;77.40
43520;DHT22;46848;51.980;5.918;2024-03-02T04:16:51;9.90;77.40
43520;DHT22;46848;51.980;5.918;2024-03-02T04:19:17;9.80;77.40
43520;DHT22;46848;51.980;5.918;2024-03-02T04:21:42;9.80;77.30
43520;DHT22;46848;51.980;5.918;2024-03-02T04:24:08;9.80;77.40
43520;DHT22;46848;51.980;5.918;2024-03-02T04:26:33;9.80;77.40
43520;DHT22;46848;51.980;5.918;2024-03-02T04:28:59;9.70;77.40
43520;DHT22;46848;51.980;5.918;2024-03-02T04:31:24;9.80;77.50
43520;DHT22;46848;51.980;5.918;2024-03-02T04:33:50;9.80;77.50
43520;DHT22;46848;51.980;5.918;2024-03-02T04:36:15;9.80;77.50
43520;DHT22;46848;51.980;5.918;2024-03-02T04:38:41;9.80;77.40
43520;DHT22;46848;51.980;5.918;2024-03-02T04:41:07;9.70;77.70
43520;DHT22;46848;51.980;5.918;2024-03-02T04:43:33;9.70;77.60
43520;DHT22;46848;51.980;5.918;2024-03-02T04:45:59;9.80;77.60
43520;DHT22;46848;51.980;5.918;2024-03-02T04:48:25;9.80;77.60
43520;DHT22;46848;51.980;5.918;2024-03-02T04:50:51;9.80;77.60
43520;DHT22;46848;51.980;5.918;2024-03-02T04:53:17;9.70;77.70
43520;DHT22;46848;51.980;5.918;2024-03-02T04:55:42;9.70;77.70
43520;DHT22;46848;51.980;5.918;2024-03-02T04:58:08;9.70;78.20
43520;DHT22;46848;51.980;5.918;2024-03-02T05:00:34;9.70;78.30
43520;DHT22;46848;51.980;5.918;2024-03-02T05:03:00;9.60;78.30
43520;DHT22;46848;51.980;5.918;2024-03-02T05:05:26;9.60;78.20
43520;DHT22;46848;51.980;5.918;2024-03-02T05:07:52;9.60;78.20
43520;DHT22;46848;51.980;5.918;2024-03-02T05:10:18;9.60;78.30
43520;DHT22;46848;51.980;5.918;2024-03-02T05:12:43;9.60;78.40
43520;DHT22;46848;51.980;5.918;2024-03-02T05:15:10;9.50;78.40
43520;DHT22;46848;51.980;5.918;2024-03-02T05:17:36;9.50;78.40
43520;DHT22;46848;51.980;5.918;2024-03-02T05:20:06;9.50;78.30
43520;DHT22;46848;51.980;5.918;2024-03-02T05:22:33;9.50;78.70
43520;DHT22;46848;51.980;5.918;2024-03-02T05:24:59;9.40;78.60
43520;DHT22;46848;51.980;5.918;2024-03-02T05:27:26;9.50;78.60
43520;DHT22;46848;51.980;5.918;2024-03-02T05:29:52;9.50;78.70
43520;DHT22;46848;51.980;5.918;2024-03-02T05:32:17;9.50;78.40
43520;DHT22;46848;51.980;5.918;2024-03-02T05:34:43;9.50;78.30
43520;DHT22;46848;51.980;5.918;2024-03-02T05:37:09;9.50;78.10
43520;DHT22;46848;51.980;5.918;2024-03-02T05:39:34;9.50;78.20
43520;DHT22;46848;51.980;5.918;2024-03-02T05:42:00;9.50;78.10
43520;DHT22;46848;51.980;5.918;2024-03-02T05:44:25;9.50;77.90
43520;DHT22;46848;51.980;5.918;2024-03-02T05:46:51;9.50;77.90
43520;DHT22;46848;51.980;5.918;2024-03-02T05:49:16;9.50;77.90
43520;DHT22;46848;51.980;5.918;2024-03-02T05:51:42;9.50;77.80
43520;DHT22;46848;51.980;5.918;2024-03-02T05:54:07;9.50;77.80
43520;DHT22;46848;51.980;5.918;2024-03-02T05:56:33;9.50;77.70
43520;DHT22;46848;51.980;5.918;2024-03-02T05:58:59;9.50;77.60
43520;DHT22;46848;51.980;5.918;2024-03-02T06:01:43;9.40;77.60
43520;DHT22;46848;51.980;5.918;2024-03-02T06:04:10;9.50;77.50
43520;DHT22;46848;51.980;5.918;2024-03-02T06:06:39;9.40;77.50
43520;DHT22;46848;51.980;5.918;2024-03-02T06:09:06;9.40;77.30
43520;DHT22;46848;51.980;5.918;2024-03-02T06:11:35;9.40;77.40
43520;DHT22;46848;51.980;5.918;2024-03-02T06:14:01;9.40;77.40
43520;DHT22;46848;51.980;5.918;2024-03-02T06:16:27;9.30;77.40
43520;DHT22;46848;51.980;5.918;2024-03-02T06:18:53;9.30;77.50
43520;DHT22;46848;51.980;5.918;2024-03-02T06:21:19;9.30;77.50
43520;DHT22;46848;51.980;5.918;2024-03-02T06:23:45;9.30;77.60
43520;DHT22;46848;51.980;5.918;2024-03-02T06:26:11;9.30;77.60
43520;DHT22;46848;51.980;5.918;2024-03-02T06:28:37;9.40;77.80
43520;DHT22;46848;51.980;5.918;2024-03-02T06:31:03;9.40;77.70
43520;DHT22;46848;51.980;5.918;2024-03-02T06:33:29;9.50;77.80
43520;DHT22;46848;51.980;5.918;2024-03-02T06:35:55;9.50;77.70
43520;DHT22;46848;51.980;5.918;2024-03-02T06:38:20;9.60;77.60
43520;DHT22;46848;51.980;5.918;2024-03-02T06:40:46;9.70;77.60
43520;DHT22;46848;51.980;5.918;2024-03-02T06:43:11;9.70;77.50
43520;DHT22;46848;51.980;5.918;2024-03-02T06:45:37;9.80;77.40
43520;DHT22;46848;51.980;5.918;2024-03-02T06:48:03;9.80;77.30
43520;DHT22;46848;51.980;5.918;2024-03-02T06:50:29;9.80;77.20
43520;DHT22;46848;51.980;5.918;2024-03-02T06:52:55;9.80;77.60
43520;DHT22;46848;51.980;5.918;2024-03-02T06:55:21;9.90;76.60
43520;DHT22;46848;51.980;5.918;2024-03-02T06:57:47;9.80;76.70
43520;DHT22;46848;51.980;5.918;2024-03-02T07:00:13;9.80;76.40
43520;DHT22;46848;51.980;5.918;2024-03-02T07:02:39;9.80;76.60
43520;DHT22;46848;51.980;5.918;2024-03-02T07:05:07;9.70;76.40
43520;DHT22;46848;51.980;5.918;2024-03-02T07:07:33;9.80;76.70
43520;DHT22;46848;51.980;5.918;2024-03-02T07:10:00;9.80;76.40
43520;DHT22;46848;51.980;5.918;2024-03-02T07:12:26;9.80;76.30
43520;DHT22;46848;51.980;5.918;2024-03-02T07:14:51;9.80;76.30
43520;DHT22;46848;51.980;5.918;2024-03-02T07:17:29;9.80;76.40
43520;DHT22;46848;51.980;5.918;2024-03-02T07:19:56;9.80;76.50
43520;DHT22;46848;51.980;5.918;2024-03-02T07:22:22;9.90;76.30
43520;DHT22;46848;51.980;5.918;2024-03-02T07:24:48;9.80;76.20
43520;DHT22;46848;51.980;5.918;2024-03-02T07:27:15;9.80;76.20
43520;DHT22;46848;51.980;5.918;2024-03-02T07:29:41;10.00;76.20
43520;DHT22;46848;51.980;5.918;2024-03-02T07:32:07;10.30;76.10
43520;DHT22;46848;51.980;5.918;2024-03-02T07:34:33;10.80;75.50
43520;DHT22;46848;51.980;5.918;2024-03-02T07:36:59;11.30;73.50
43520;DHT22;46848;51.980;5.918;2024-03-02T07:39:25;11.50;71.50
43520;DHT22;46848;51.980;5.918;2024-03-02T07:41:51;11.60;71.00
43520;DHT22;46848;51.980;5.918;2024-03-02T07:44:17;11.70;71.10
43520;DHT22;46848;51.980;5.918;2024-03-02T07:46:45;11.80;70.90
43520;DHT22;46848;51.980;5.918;2024-03-02T07:49:15;12.00;69.50
43520;DHT22;46848;51.980;5.918;2024-03-02T07:51:41;12.20;70.00
43520;DHT22;46848;51.980;5.918;2024-03-02T07:54:07;12.50;69.30
43520;DHT22;46848;51.980;5.918;2024-03-02T07:56:33;12.70;68.30
43520;DHT22;46848;51.980;5.918;2024-03-02T07:58:59;13.00;67.90
43520;DHT22;46848;51.980;5.918;2024-03-02T08:01:32;13.30;66.80
43520;DHT22;46848;51.980;5.918;2024-03-02T08:03:59;13.60;66.50
43520;DHT22;46848;51.980;5.918;2024-03-02T08:06:26;13.90;66.00
43520;DHT22;46848;51.980;5.918;2024-03-02T08:09:00;14.30;66.60
43520;DHT22;46848;51.980;5.918;2024-03-02T08:11:27;14.70;65.90
43520;DHT22;46848;51.980;5.918;2024-03-02T08:13:52;15.20;67.00
43520;DHT22;46848;51.980;5.918;2024-03-02T08:16:21;15.60;64.00
43520;DHT22;46848;51.980;5.918;2024-03-02T08:18:48;15.80;64.10
43520;DHT22;46848;51.980;5.918;2024-03-02T08:21:15;16.10;60.40
43520;DHT22;46848;51.980;5.918;2024-03-02T08:23:42;16.20;61.40
43520;DHT22;46848;51.980;5.918;2024-03-02T08:26:08;16.00;60.00
43520;DHT22;46848;51.980;5.918;2024-03-02T08:28:34;15.80;61.00
43520;DHT22;46848;51.980;5.918;2024-03-02T08:31:00;15.60;60.60
43520;DHT22;46848;51.980;5.918;2024-03-02T08:33:25;15.50;60.80
43520;DHT22;46848;51.980;5.918;2024-03-02T08:35:51;15.50;60.80
43520;DHT22;46848;51.980;5.918;2024-03-02T08:38:17;15.60;63.80
43520;DHT22;46848;51.980;5.918;2024-03-02T08:40:43;15.90;65.10
43520;DHT22;46848;51.980;5.918;2024-03-02T08:43:09;15.90;57.70
43520;DHT22;46848;51.980;5.918;2024-03-02T08:45:35;15.80;61.50
43520;DHT22;46848;51.980;5.918;2024-03-02T08:48:03;16.00;64.50
43520;DHT22;46848;51.980;5.918;2024-03-02T08:50:29;16.40;60.00
43520;DHT22;46848;51.980;5.918;2024-03-02T08:52:54;16.40;61.00
43520;DHT22;46848;51.980;5.918;2024-03-02T08:55:20;16.70;64.30
43520;DHT22;46848;51.980;5.918;2024-03-02T08:57:45;17.10;63.40
43520;DHT22;46848;51.980;5.918;2024-03-02T09:00:11;17.40;64.20
43520;DHT22;46848;51.980;5.918;2024-03-02T09:02:37;17.40;61.60
43520;DHT22;46848;51.980;5.918;2024-03-02T09:05:04;17.60;65.40
43520;DHT22;46848;51.980;5.918;2024-03-02T09:07:30;17.90;65.50
43520;DHT22;46848;51.980;5.918;2024-03-02T09:09:56;18.10;60.40
43520;DHT22;46848;51.980;5.918;2024-03-02T09:12:21;18.20;63.90
43520;DHT22;46848;51.980;5.918;2024-03-02T09:14:47;18.50;65.60
43520;DHT22;46848;51.980;5.918;2024-03-02T09:17:13;18.50;59.30
43520;DHT22;46848;51.980;5.918;2024-03-02T09:19:39;18.70;65.20
43520;DHT22;46848;51.980;5.918;2024-03-02T09:22:05;18.80;65.80
43520;DHT22;46848;51.980;5.918;2024-03-02T09:24:31;18.90;60.10
43520;DHT22;46848;51.980;5.918;2024-03-02T09:26:59;18.80;60.70
43520;DHT22;46848;51.980;5.918;2024-03-02T09:29:24;18.70;62.70
43520;DHT22;46848;51.980;5.918;2024-03-02T09:31:50;18.40;61.10
43520;DHT22;46848;51.980;5.918;2024-03-02T09:34:16;18.30;64.10
43520;DHT22;46848;51.980;5.918;2024-03-02T09:36:42;18.30;57.60
43520;DHT22;46848;51.980;5.918;2024-03-02T09:39:08;18.10;64.50
43520;DHT22;46848;51.980;5.918;2024-03-02T09:41:36;18.10;58.90
43520;DHT22;46848;51.980;5.918;2024-03-02T09:44:02;17.80;52.50
43520;DHT22;46848;51.980;5.918;2024-03-02T09:46:28;17.50;62.30
43520;DHT22;46848;51.980;5.918;2024-03-02T09:48:54;17.60;65.70
43520;DHT22;46848;51.980;5.918;2024-03-02T09:51:20;17.70;57.50
43520;DHT22;46848;51.980;5.918;2024-03-02T09:53:46;17.70;60.70
43520;DHT22;46848;51.980;5.918;2024-03-02T09:56:12;17.70;63.40
43520;DHT22;46848;51.980;5.918;2024-03-02T09:58:41;17.70;61.20
43520;DHT22;46848;51.980;5.918;2024-03-02T10:01:07;17.60;58.50
43520;DHT22;46848;51.980;5.918;2024-03-02T10:03:33;17.30;53.80
43520;DHT22;46848;51.980;5.918;2024-03-02T10:06:23;17.10;59.60
43520;DHT22;46848;51.980;5.918;2024-03-02T10:08:49;17.30;63.30
43520;DHT22;46848;51.980;5.918;2024-03-02T10:11:32;17.50;65.60
43520;DHT22;46848;51.980;5.918;2024-03-02T10:14:09;17.70;63.80
43520;DHT22;46848;51.980;5.918;2024-03-02T10:16:45;18.00;60.90
43520;DHT22;46848;51.980;5.918;2024-03-02T10:19:18;18.00;60.70
43520;DHT22;46848;51.980;5.918;2024-03-02T10:21:49;18.20;60.50
43520;DHT22;46848;51.980;5.918;2024-03-02T10:24:15;18.40;64.10
43520;DHT22;46848;51.980;5.918;2024-03-02T10:26:41;18.70;63.90
43520;DHT22;46848;51.980;5.918;2024-03-02T10:29:08;18.80;63.20
43520;DHT22;46848;51.980;5.918;2024-03-02T10:31:37;18.80;60.40
43520;DHT22;46848;51.980;5.918;2024-03-02T10:34:03;18.70;56.80
43520;DHT22;46848;51.980;5.918;2024-03-02T10:36:29;18.50;60.50
43520;DHT22;46848;51.980;5.918;2024-03-02T16:45:35;15.00;59.50
43520;DHT22;46848;51.980;5.918;2024-03-02T16:48:01;15.10;59.70
43520;DHT22;46848;51.980;5.918;2024-03-02T16:50:26;15.00;59.80
43520;DHT22;46848;51.980;5.918;2024-03-02T16:52:52;15.00;59.90
43520;DHT22;46848;51.980;5.918;2024-03-02T16:55:18;14.90;60.10
43520;DHT22;46848;51.980;5.918;2024-03-02T16:57:44;14.90;60.20
43520;DHT22;46848;51.980;5.918;2024-03-02T17:00:10;15.00;60.40
43520;DHT22;46848;51.980;5.918;2024-03-02T17:02:36;15.00;60.40
43520;DHT22;46848;51.980;5.918;2024-03-02T17:05:01;15.00;60.50
43520;DHT22;46848;51.980;5.918;2024-03-02T17:07:27;14.90;60.70
43520;DHT22;46848;51.980;5.918;2024-03-02T17:09:55;14.80;61.00
43520;DHT22;46848;51.980;5.918;2024-03-02T17:12:22;14.80;60.90
43520;DHT22;46848;51.980;5.918;2024-03-02T17:14:48;14.80;61.10
43520;DHT22;46848;51.980;5.918;2024-03-02T17:17:14;14.70;61.30
43520;DHT22;46848;51.980;5.918;2024-03-02T17:19:40;14.70;61.40
43520;DHT22;46848;51.980;5.918;2024-03-02T17:22:06;14.70;61.60
43520;DHT22;46848;51.980;5.918;2024-03-02T17:24:31;14.70;61.70
43520;DHT22;46848;51.980;5.918;2024-03-02T17:26:57;14.60;61.80
43520;DHT22;46848;51.980;5.918;2024-03-02T17:29:23;14.60;61.80
43520;DHT22;46848;51.980;5.918;2024-03-02T17:31:50;14.50;61.60
43520;DHT22;46848;51.980;5.918;2024-03-02T17:34:16;14.50;62.00
43520;DHT22;46848;51.980;5.918;2024-03-02T17:36:41;14.40;62.20
43520;DHT22;46848;51.980;5.918;2024-03-02T17:39:07;14.40;62.50
43520;DHT22;46848;51.980;5.918;2024-03-02T17:41:35;14.40;62.50
43520;DHT22;46848;51.980;5.918;2024-03-02T17:44:01;14.40;62.50
43520;DHT22;46848;51.980;5.918;2024-03-02T17:46:26;14.40;62.60
43520;DHT22;46848;51.980;5.918;2024-03-02T17:48:52;14.40;62.80
43520;DHT22;46848;51.980;5.918;2024-03-02T17:51:17;14.30;62.80
43520;DHT22;46848;51.980;5.918;2024-03-02T17:53:43;14.30;63.10
43520;DHT22;46848;51.980;5.918;2024-03-02T17:56:12;14.30;63.00
43520;DHT22;46848;51.980;5.918;2024-03-02T17:58:40;14.20;63.20
43520;DHT22;46848;51.980;5.918;2024-03-02T18:01:06;14.20;63.40
43520;DHT22;46848;51.980;5.918;2024-03-02T18:03:32;14.10;63.30
43520;DHT22;46848;51.980;5.918;2024-03-02T18:05:57;14.20;63.50
43520;DHT22;46848;51.980;5.918;2024-03-02T18:08:23;14.10;63.40
43520;DHT22;46848;51.980;5.918;2024-03-02T18:10:48;14.10;63.50
43520;DHT22;46848;51.980;5.918;2024-03-02T18:13:14;14.10;63.50
43520;DHT22;46848;51.980;5.918;2024-03-02T18:15:40;14.10;63.60
43520;DHT22;46848;51.980;5.918;2024-03-02T18:18:06;14.10;63.80
43520;DHT22;46848;51.980;5.918;2024-03-02T18:20:32;14.10;63.80
43520;DHT22;46848;51.980;5.918;2024-03-02T18:23:01;14.00;63.90
43520;DHT22;46848;51.980;5.918;2024-03-02T18:25:27;14.00;64.00
43520;DHT22;46848;51.980;5.918;2024-03-02T18:27:53;13.90;64.10
43520;DHT22;46848;51.980;5.918;2024-03-02T18:30:18;13.90;64.10
43520;DHT22;46848;51.980;5.918;2024-03-02T18:32:44;13.90;64.10
43520;DHT22;46848;51.980;5.918;2024-03-02T18:35:10;13.90;64.10
43520;DHT22;46848;51.980;5.918;2024-03-02T18:37:36;13.80;64.00
43520;DHT22;46848;51.980;5.918;2024-03-02T18:40:02;13.80;64.10
43520;DHT22;46848;51.980;5.918;2024-03-02T18:42:33;13.80;64.10
43520;DHT22;46848;51.980;5.918;2024-03-02T18:44:59;13.80;64.00
43520;DHT22;46848;51.980;5.918;2024-03-02T18:47:25;13.80;64.10
43520;DHT22;46848;51.980;5.918;2024-03-02T18:49:52;13.80;64.10
43520;DHT22;46848;51.980;5.918;2024-03-02T18:52:21;13.80;64.10
43520;DHT22;46848;51.980;5.918;2024-03-02T18:54:46;13.80;63.90
43520;DHT22;46848;51.980;5.918;2024-03-02T18:57:12;13.70;64.00
43520;DHT22;46848;51.980;5.918;2024-03-02T18:59:38;13.70;64.00
43520;DHT22;46848;51.980;5.918;2024-03-02T19:02:04;13.70;64.00
43520;DHT22;46848;51.980;5.918;2024-03-02T19:04:30;13.70;64.20
43520;DHT22;46848;51.980;5.918;2024-03-02T19:06:55;13.60;64.30
43520;DHT22;46848;51.980;5.918;2024-03-02T19:09:21;13.60;64.40
43520;DHT22;46848;51.980;5.918;2024-03-02T19:11:46;13.60;64.10
43520;DHT22;46848;51.980;5.918;2024-03-02T19:14:12;13.60;64.20
43520;DHT22;46848;51.980;5.918;2024-03-02T19:16:38;13.60;64.30
43520;DHT22;46848;51.980;5.918;2024-03-02T19:19:03;13.60;64.10
43520;DHT22;46848;51.980;5.918;2024-03-02T19:21:29;13.60;64.00
43520;DHT22;46848;51.980;5.918;2024-03-02T19:23:54;13.70;64.00
43520;DHT22;46848;51.980;5.918;2024-03-02T19:26:20;13.70;63.90
43520;DHT22;46848;51.980;5.918;2024-03-02T19:28:46;13.60;64.00
43520;DHT22;46848;51.980;5.918;2024-03-02T19:31:13;13.60;64.20
43520;DHT22;46848;51.980;5.918;2024-03-02T19:33:38;13.60;64.10
43520;DHT22;46848;51.980;5.918;2024-03-02T19:36:04;13.60;64.20
43520;DHT22;46848;51.980;5.918;2024-03-02T19:38:30;13.60;64.20
43520;DHT22;46848;51.980;5.918;2024-03-02T19:40:59;13.60;64.30
43520;DHT22;46848;51.980;5.918;2024-03-02T19:43:24;13.60;64.20
43520;DHT22;46848;51.980;5.918;2024-03-02T19:45:50;13.60;64.30
43520;DHT22;46848;51.980;5.918;2024-03-02T19:48:16;13.60;64.20
43520;DHT22;46848;51.980;5.918;2024-03-02T19:50:43;13.60;64.20
43520;DHT22;46848;51.980;5.918;2024-03-02T19:53:09;13.60;64.20
43520;DHT22;46848;51.980;5.918;2024-03-02T19:55:34;13.60;64.30
43520;DHT22;46848;51.980;5.918;2024-03-02T19:58:02;13.50;64.20
43520;DHT22;46848;51.980;5.918;2024-03-02T20:00:27;13.50;64.30
43520;DHT22;46848;51.980;5.918;2024-03-02T20:02:53;13.60;64.90
43520;DHT22;46848;51.980;5.918;2024-03-02T20:05:19;13.50;64.00
43520;DHT22;46848;51.980;5.918;2024-03-02T20:07:44;13.50;63.90
43520;DHT22;46848;51.980;5.918;2024-03-02T20:10:11;13.50;63.80
43520;DHT22;46848;51.980;5.918;2024-03-02T20:12:37;13.50;63.80
43520;DHT22;46848;51.980;5.918;2024-03-02T20:15:03;13.50;63.60
43520;DHT22;46848;51.980;5.918;2024-03-02T20:17:29;13.50;63.30
43520;DHT22;46848;51.980;5.918;2024-03-02T20:19:55;13.50;63.50
43520;DHT22;46848;51.980;5.918;2024-03-02T20:22:21;13.50;63.50
43520;DHT22;46848;51.980;5.918;2024-03-02T20:24:46;13.50;63.40
43520;DHT22;46848;51.980;5.918;2024-03-02T20:27:12;13.50;63.10
43520;DHT22;46848;51.980;5.918;2024-03-02T20:29:39;13.50;63.10
43520;DHT22;46848;51.980;5.918;2024-03-02T20:32:05;13.50;62.90
43520;DHT22;46848;51.980;5.918;2024-03-02T20:34:30;13.50;62.70
43520;DHT22;46848;51.980;5.918;2024-03-02T20:36:56;13.40;62.70
43520;DHT22;46848;51.980;5.918;2024-03-02T20:39:22;13.50;62.80
43520;DHT22;46848;51.980;5.918;2024-03-02T20:41:48;13.40;62.80
43520;DHT22;46848;51.980;5.918;2024-03-02T20:44:14;13.40;62.70
43520;DHT22;46848;51.980;5.918;2024-03-02T20:46:43;13.40;62.80
43520;DHT22;46848;51.980;5.918;2024-03-02T20:49:09;13.40;62.90
43520;DHT22;46848;51.980;5.918;2024-03-02T20:51:35;13.30;62.90
43520;DHT22;46848;51.980;5.918;2024-03-02T20:54:01;13.30;62.60
43520;DHT22;46848;51.980;5.918;2024-03-02T20:56:29;13.30;62.90
43520;DHT22;46848;51.980;5.918;2024-03-02T20:58:54;13.30;62.90
43520;DHT22;46848;51.980;5.918;2024-03-02T21:01:20;13.30;62.90
43520;DHT22;46848;51.980;5.918;2024-03-02T21:03:47;13.30;62.90
43520;DHT22;46848;51.980;5.918;2024-03-02T21:06:12;13.30;63.00
43520;DHT22;46848;51.980;5.918;2024-03-02T21:08:38;13.30;63.00
43520;DHT22;46848;51.980;5.918;2024-03-02T21:11:04;13.30;63.00
43520;DHT22;46848;51.980;5.918;2024-03-02T21:13:30;13.30;63.00
43520;DHT22;46848;51.980;5.918;2024-03-02T21:15:56;13.30;62.90
43520;DHT22;46848;51.980;5.918;2024-03-02T21:18:22;13.20;63.10
43520;DHT22;46848;51.980;5.918;2024-03-02T21:20:48;13.30;63.10
43520;DHT22;46848;51.980;5.918;2024-03-02T21:23:14;13.30;63.20
43520;DHT22;46848;51.980;5.918;2024-03-02T21:25:41;13.30;63.30
43520;DHT22;46848;51.980;5.918;2024-03-02T21:28:07;13.30;63.30
43520;DHT22;46848;51.980;5.918;2024-03-02T21:30:32;13.30;63.10
43520;DHT22;46848;51.980;5.918;2024-03-02T21:33:00;13.30;63.20
43520;DHT22;46848;51.980;5.918;2024-03-02T21:35:27;13.30;63.20
43520;DHT22;46848;51.980;5.918;2024-03-02T21:37:59;13.30;63.30
43520;DHT22;46848;51.980;5.918;2024-03-02T21:40:28;13.20;63.50